sensor_id;sensor_type;location;lat;lon;timestamp;pressure;altitude;pressure_sealevel;temperature
72236;BMP280;60146;52.498;13.462;2024-01-16T00:01:51;98799.34;;;2.42
72236;BMP280;60146;52.498;13.462;2024-01-16T00:04:17;98787.00;;;2.29
72236;BMP280;60146;52.498;13.462;2024-01-16T00:06:42;98782.84;;;2.38
72236;BMP280;60146;52.498;13.462;2024-01-16T00:09:08;98775.38;;;2.26
72236;BMP280;60146;52.498;13.462;2024-01-16T00:11:42;98756.19;;;2.00
72236;BMP280;60146;52.498;13.462;2024-01-16T00:14:08;98640.56;;;1.92
72236;BMP280;60146;52.498;13.462;2024-01-16T00:16:33;98624.69;;;2.13
72236;BMP280;60146;52.498;13.462;2024-01-16T00:18:58;98583.53;;;1.88
72236;BMP280;60146;52.498;13.462;2024-01-16T00:21:24;98395.41;;;1.64
72236;BMP280;60146;52.498;13.462;2024-01-16T00:23:49;98319.78;;;1.68
72236;BMP280;60146;52.498;13.462;2024-01-16T00:26:21;98290.97;;;1.61
72236;BMP280;60146;52.498;13.462;2024-01-16T00:28:47;98212.00;;;1.65
72236;BMP280;60146;52.498;13.462;2024-01-16T00:31:12;98142.69;;;1.77
72236;BMP280;60146;52.498;13.462;2024-01-16T00:33:38;98086.22;;;1.76
72236;BMP280;60146;52.498;13.462;2024-01-16T00:36:05;98047.03;;;1.56
72236;BMP280;60146;52.498;13.462;2024-01-16T00:38:33;97981.63;;;1.52
72236;BMP280;60146;52.498;13.462;2024-01-16T00:40:58;97952.81;;;1.45
72236;BMP280;60146;52.498;13.462;2024-01-16T00:43:23;97906.47;;;1.40
72236;BMP280;60146;52.498;13.462;2024-01-16T00:45:49;97848.84;;;1.49
72236;BMP280;60146;52.498;13.462;2024-01-16T00:48:14;97832.91;;;1.60
72236;BMP280;60146;52.498;13.462;2024-01-16T00:50:41;97784.97;;;1.59
72236;BMP280;60146;52.498;13.462;2024-01-16T00:53:06;97708.34;;;1.60
72236;BMP280;60146;52.498;13.462;2024-01-16T00:55:32;97647.06;;;1.57
72236;BMP280;60146;52.498;13.462;2024-01-16T00:57:57;97554.41;;;1.60
72236;BMP280;60146;52.498;13.462;2024-01-16T01:00:22;97466.16;;;1.63
72236;BMP280;60146;52.498;13.462;2024-01-16T01:02:48;97390.47;;;1.68
72236;BMP280;60146;52.498;13.462;2024-01-16T01:05:13;97393.63;;;1.35
72236;BMP280;60146;52.498;13.462;2024-01-16T01:07:38;97358.28;;;1.27
72236;BMP280;60146;52.498;13.462;2024-01-16T01:10:04;97325.19;;;1.29
72236;BMP280;60146;52.498;13.462;2024-01-16T01:12:30;97269.38;;;1.16
72236;BMP280;60146;52.498;13.462;2024-01-16T01:14:55;97191.59;;;1.06
72236;BMP280;60146;52.498;13.462;2024-01-16T01:17:21;97168.66;;;0.96
72236;BMP280;60146;52.498;13.462;2024-01-16T01:19:46;97134.44;;;0.96
72236;BMP280;60146;52.498;13.462;2024-01-16T01:22:11;97105.19;;;1.00
72236;BMP280;60146;52.498;13.462;2024-01-16T01:24:37;97102.56;;;0.92
72236;BMP280;60146;52.498;13.462;2024-01-16T01:27:03;97090.63;;;0.96
72236;BMP280;60146;52.498;13.462;2024-01-16T01:29:29;97090.78;;;0.99
72236;BMP280;60146;52.498;13.462;2024-01-16T01:31:54;97085.19;;;0.97
72236;BMP280;60146;52.498;13.462;2024-01-16T01:34:19;97079.28;;;0.97
72236;BMP280;60146;52.498;13.462;2024-01-16T01:36:45;97082.31;;;0.99
72236;BMP280;60146;52.498;13.462;2024-01-16T01:39:10;97074.13;;;0.97
72236;BMP280;60146;52.498;13.462;2024-01-16T01:41:36;97082.28;;;0.90
72236;BMP280;60146;52.498;13.462;2024-01-16T01:44:02;97076.81;;;0.92
72236;BMP280;60146;52.498;13.462;2024-01-16T01:46:27;97079.09;;;0.93
72236;BMP280;60146;52.498;13.462;2024-01-16T01:48:53;97088.94;;;0.91
72236;BMP280;60146;52.498;13.462;2024-01-16T01:51:19;97097.69;;;0.82
72236;BMP280;60146;52.498;13.462;2024-01-16T01:53:46;97135.25;;;0.83
72236;BMP280;60146;52.498;13.462;2024-01-16T01:56:14;97206.44;;;0.79
72236;BMP280;60146;52.498;13.462;2024-01-16T01:58:44;97201.69;;;0.73
72236;BMP280;60146;52.498;13.462;2024-01-16T02:01:10;97191.84;;;0.67
72236;BMP280;60146;52.498;13.462;2024-01-16T02:03:44;97198.75;;;0.58
72236;BMP280;60146;52.498;13.462;2024-01-16T02:06:11;97183.56;;;0.56
72236;BMP280;60146;52.498;13.462;2024-01-16T02:08:38;97164.38;;;0.62
72236;BMP280;60146;52.498;13.462;2024-01-16T02:11:03;97184.81;;;0.59
72236;BMP280;60146;52.498;13.462;2024-01-16T02:13:29;97173.75;;;0.58
72236;BMP280;60146;52.498;13.462;2024-01-16T02:15:54;97170.75;;;0.65
72236;BMP280;60146;52.498;13.462;2024-01-16T02:18:20;97230.91;;;0.68
72236;BMP280;60146;52.498;13.462;2024-01-16T02:20:45;97251.38;;;0.73
72236;BMP280;60146;52.498;13.462;2024-01-16T02:23:14;97226.88;;;0.76
72236;BMP280;60146;52.498;13.462;2024-01-16T02:25:43;97226.56;;;0.77
72236;BMP280;60146;52.498;13.462;2024-01-16T02:28:09;97232.78;;;0.76
72236;BMP280;60146;52.498;13.462;2024-01-16T02:30:34;97228.09;;;0.78
72236;BMP280;60146;52.498;13.462;2024-01-16T02:33:00;97280.97;;;0.84
72236;BMP280;60146;52.498;13.462;2024-01-16T02:35:25;97307.44;;;0.76
72236;BMP280;60146;52.498;13.462;2024-01-16T02:37:50;97288.38;;;0.77
72236;BMP280;60146;52.498;13.462;2024-01-16T02:40:16;97260.56;;;0.88
72236;BMP280;60146;52.498;13.462;2024-01-16T02:42:41;97331.31;;;1.12
72236;BMP280;60146;52.498;13.462;2024-01-16T02:45:07;97376.31;;;1.06
72236;BMP280;60146;52.498;13.462;2024-01-16T02:47:33;97397.53;;;0.90
72236;BMP280;60146;52.498;13.462;2024-01-16T02:49:59;97375.69;;;0.87
72236;BMP280;60146;52.498;13.462;2024-01-16T02:52:25;97392.75;;;0.83
72236;BMP280;60146;52.498;13.462;2024-01-16T02:54:50;97414.16;;;0.70
72236;BMP280;60146;52.498;13.462;2024-01-16T02:57:16;97386.69;;;0.66
72236;BMP280;60146;52.498;13.462;2024-01-16T02:59:44;97416.44;;;0.72
72236;BMP280;60146;52.498;13.462;2024-01-16T03:02:10;97488.91;;;0.66
72236;BMP280;60146;52.498;13.462;2024-01-16T03:04:36;97546.66;;;0.46
72236;BMP280;60146;52.498;13.462;2024-01-16T03:07:02;97530.31;;;0.29
72236;BMP280;60146;52.498;13.462;2024-01-16T03:09:27;97508.84;;;0.21
72236;BMP280;60146;52.498;13.462;2024-01-16T03:11:52;97488.16;;;0.12
72236;BMP280;60146;52.498;13.462;2024-01-16T03:14:18;97467.88;;;0.11
72236;BMP280;60146;52.498;13.462;2024-01-16T03:16:43;97452.09;;;-0.01
72236;BMP280;60146;52.498;13.462;2024-01-16T03:19:09;97413.44;;;0.04
72236;BMP280;60146;52.498;13.462;2024-01-16T03:21:35;97388.31;;;0.01
72236;BMP280;60146;52.498;13.462;2024-01-16T03:24:00;97343.53;;;0.02
72236;BMP280;60146;52.498;13.462;2024-01-16T03:26:26;97322.56;;;0.08
72236;BMP280;60146;52.498;13.462;2024-01-16T03:28:51;97300.66;;;0.24
72236;BMP280;60146;52.498;13.462;2024-01-16T03:31:16;97347.66;;;0.51
72236;BMP280;60146;52.498;13.462;2024-01-16T03:33:43;97408.44;;;0.47
72236;BMP280;60146;52.498;13.462;2024-01-16T03:36:09;97394.34;;;0.44
72236;BMP280;60146;52.498;13.462;2024-01-16T03:38:37;97354.69;;;0.59
72236;BMP280;60146;52.498;13.462;2024-01-16T03:41:03;97394.50;;;0.74
72236;BMP280;60146;52.498;13.462;2024-01-16T03:43:29;97420.66;;;0.68
72236;BMP280;60146;52.498;13.462;2024-01-16T03:45:57;97389.34;;;0.74
72236;BMP280;60146;52.498;13.462;2024-01-16T03:48:22;97377.31;;;0.83
72236;BMP280;60146;52.498;13.462;2024-01-16T03:50:48;97414.28;;;1.00
72236;BMP280;60146;52.498;13.462;2024-01-16T03:53:13;97576.28;;;1.02
72236;BMP280;60146;52.498;13.462;2024-01-16T03:55:39;97652.34;;;0.99
72236;BMP280;60146;52.498;13.462;2024-01-16T03:58:04;97697.19;;;0.98
72236;BMP280;60146;52.498;13.462;2024-01-16T04:00:29;97687.03;;;0.89
72236;BMP280;60146;52.498;13.462;2024-01-16T04:02:55;97661.47;;;0.79
72236;BMP280;60146;52.498;13.462;2024-01-16T04:05:20;97629.31;;;0.76
72236;BMP280;60146;52.498;13.462;2024-01-16T04:07:45;97588.88;;;0.90
72236;BMP280;60146;52.498;13.462;2024-01-16T04:10:11;97543.28;;;0.90
72236;BMP280;60146;52.498;13.462;2024-01-16T04:12:36;97518.47;;;0.94
72236;BMP280;60146;52.498;13.462;2024-01-16T04:15:01;97568.56;;;1.02
72236;BMP280;60146;52.498;13.462;2024-01-16T04:17:27;97611.97;;;1.08
72236;BMP280;60146;52.498;13.462;2024-01-16T04:19:52;97683.34;;;1.08
72236;BMP280;60146;52.498;13.462;2024-01-16T04:22:17;97830.53;;;1.19
72236;BMP280;60146;52.498;13.462;2024-01-16T04:24:43;97951.63;;;1.24
72236;BMP280;60146;52.498;13.462;2024-01-16T04:27:11;97934.19;;;1.16
72236;BMP280;60146;52.498;13.462;2024-01-16T04:29:37;97929.94;;;1.25
72236;BMP280;60146;52.498;13.462;2024-01-16T04:32:03;97901.03;;;1.28
72236;BMP280;60146;52.498;13.462;2024-01-16T04:34:29;97885.72;;;1.18
72236;BMP280;60146;52.498;13.462;2024-01-16T04:36:54;97841.63;;;1.20
72236;BMP280;60146;52.498;13.462;2024-01-16T04:39:19;97814.03;;;1.20
72236;BMP280;60146;52.498;13.462;2024-01-16T04:41:47;97788.91;;;1.13
72236;BMP280;60146;52.498;13.462;2024-01-16T04:44:13;97743.56;;;1.12
72236;BMP280;60146;52.498;13.462;2024-01-16T04:46:38;97752.34;;;1.11
72236;BMP280;60146;52.498;13.462;2024-01-16T04:49:03;97730.50;;;1.08
72236;BMP280;60146;52.498;13.462;2024-01-16T04:51:29;97732.78;;;1.10
72236;BMP280;60146;52.498;13.462;2024-01-16T04:53:54;97775.06;;;1.09
72236;BMP280;60146;52.498;13.462;2024-01-16T04:56:19;97784.66;;;1.03
72236;BMP280;60146;52.498;13.462;2024-01-16T04:58:46;97772.34;;;1.00
72236;BMP280;60146;52.498;13.462;2024-01-16T05:01:12;97736.00;;;1.02
72236;BMP280;60146;52.498;13.462;2024-01-16T05:03:38;97691.16;;;1.03
72236;BMP280;60146;52.498;13.462;2024-01-16T05:06:03;97668.25;;;1.01
72236;BMP280;60146;52.498;13.462;2024-01-16T05:08:28;97671.94;;;1.13
72236;BMP280;60146;52.498;13.462;2024-01-16T05:10:56;97761.81;;;1.15
72236;BMP280;60146;52.498;13.462;2024-01-16T05:13:21;97748.72;;;1.12
72236;BMP280;60146;52.498;13.462;2024-01-16T05:15:46;97789.66;;;1.13
72236;BMP280;60146;52.498;13.462;2024-01-16T05:18:12;97804.78;;;1.19
72236;BMP280;60146;52.498;13.462;2024-01-16T05:20:37;97843.59;;;1.10
72236;BMP280;60146;52.498;13.462;2024-01-16T05:23:03;97866.19;;;1.13
72236;BMP280;60146;52.498;13.462;2024-01-16T05:25:28;97846.88;;;0.97
72236;BMP280;60146;52.498;13.462;2024-01-16T05:27:55;97800.88;;;1.04
72236;BMP280;60146;52.498;13.462;2024-01-16T05:30:20;97785.06;;;0.97
72236;BMP280;60146;52.498;13.462;2024-01-16T05:32:46;97752.31;;;0.97
72236;BMP280;60146;52.498;13.462;2024-01-16T05:35:11;97788.25;;;0.89
72236;BMP280;60146;52.498;13.462;2024-01-16T05:37:36;97799.31;;;1.08
72236;BMP280;60146;52.498;13.462;2024-01-16T05:40:02;97816.91;;;1.01
72236;BMP280;60146;52.498;13.462;2024-01-16T05:42:29;97809.75;;;0.98
72236;BMP280;60146;52.498;13.462;2024-01-16T05:44:54;97750.28;;;0.94
72236;BMP280;60146;52.498;13.462;2024-01-16T05:47:19;97722.66;;;1.00
72236;BMP280;60146;52.498;13.462;2024-01-16T05:49:45;97717.50;;;1.00
72236;BMP280;60146;52.498;13.462;2024-01-16T05:52:10;97729.97;;;0.93
72236;BMP280;60146;52.498;13.462;2024-01-16T05:54:35;97723.16;;;0.84
72236;BMP280;60146;52.498;13.462;2024-01-16T05:57:01;97712.25;;;0.73
72236;BMP280;60146;52.498;13.462;2024-01-16T05:59:27;97679.13;;;0.85
72236;BMP280;60146;52.498;13.462;2024-01-16T06:01:53;97675.63;;;0.63
72236;BMP280;60146;52.498;13.462;2024-01-16T06:04:18;97627.63;;;0.54
72236;BMP280;60146;52.498;13.462;2024-01-16T06:06:44;97591.78;;;0.31
72236;BMP280;60146;52.498;13.462;2024-01-16T06:09:12;97506.34;;;0.55
72236;BMP280;60146;52.498;13.462;2024-01-16T06:11:39;97502.75;;;0.69
72236;BMP280;60146;52.498;13.462;2024-01-16T06:14:06;97536.41;;;0.73
72236;BMP280;60146;52.498;13.462;2024-01-16T06:16:32;97579.34;;;0.77
72236;BMP280;60146;52.498;13.462;2024-01-16T06:18:57;97599.53;;;0.70
72236;BMP280;60146;52.498;13.462;2024-01-16T06:21:23;97572.44;;;0.73
72236;BMP280;60146;52.498;13.462;2024-01-16T06:23:48;97600.50;;;0.74
72236;BMP280;60146;52.498;13.462;2024-01-16T06:26:13;97612.91;;;0.72
72236;BMP280;60146;52.498;13.462;2024-01-16T06:28:39;97650.59;;;0.82
72236;BMP280;60146;52.498;13.462;2024-01-16T06:31:07;97681.75;;;0.67
72236;BMP280;60146;52.498;13.462;2024-01-16T06:33:32;97659.41;;;0.63
72236;BMP280;60146;52.498;13.462;2024-01-16T06:35:58;97615.75;;;0.58
72236;BMP280;60146;52.498;13.462;2024-01-16T06:38:24;97582.44;;;0.48
72236;BMP280;60146;52.498;13.462;2024-01-16T06:40:49;97553.28;;;0.52
72236;BMP280;60146;52.498;13.462;2024-01-16T06:43:15;97571.16;;;0.44
72236;BMP280;60146;52.498;13.462;2024-01-16T06:45:42;97566.38;;;0.38
72236;BMP280;60146;52.498;13.462;2024-01-16T06:48:08;97544.00;;;0.38
72236;BMP280;60146;52.498;13.462;2024-01-16T06:50:33;97525.72;;;0.40
72236;BMP280;60146;52.498;13.462;2024-01-16T06:52:58;97513.13;;;0.51
72236;BMP280;60146;52.498;13.462;2024-01-16T06:55:24;97523.72;;;0.50
72236;BMP280;60146;52.498;13.462;2024-01-16T06:57:49;97528.41;;;0.61
72236;BMP280;60146;52.498;13.462;2024-01-16T07:00:15;97540.97;;;0.63
72236;BMP280;60146;52.498;13.462;2024-01-16T07:02:43;97534.81;;;0.77
72236;BMP280;60146;52.498;13.462;2024-01-16T07:05:14;97590.00;;;0.84
72236;BMP280;60146;52.498;13.462;2024-01-16T07:07:39;97700.59;;;0.94
72236;BMP280;60146;52.498;13.462;2024-01-16T07:10:05;97719.75;;;0.88
72236;BMP280;60146;52.498;13.462;2024-01-16T07:12:33;97713.69;;;0.97
72236;BMP280;60146;52.498;13.462;2024-01-16T07:14:59;97706.25;;;1.09
72236;BMP280;60146;52.498;13.462;2024-01-16T07:17:24;97782.78;;;1.09
72236;BMP280;60146;52.498;13.462;2024-01-16T07:19:50;97770.09;;;1.12
72236;BMP280;60146;52.498;13.462;2024-01-16T07:22:15;97817.03;;;1.27
72236;BMP280;60146;52.498;13.462;2024-01-16T07:24:41;97851.25;;;1.14
72236;BMP280;60146;52.498;13.462;2024-01-16T07:27:06;97870.53;;;1.17
72236;BMP280;60146;52.498;13.462;2024-01-16T07:29:32;97849.88;;;1.35
72236;BMP280;60146;52.498;13.462;2024-01-16T07:31:58;97896.31;;;1.30
72236;BMP280;60146;52.498;13.462;2024-01-16T07:34:23;97892.34;;;1.24
72236;BMP280;60146;52.498;13.462;2024-01-16T07:36:50;97891.81;;;1.22
72236;BMP280;60146;52.498;13.462;2024-01-16T07:39:15;97906.53;;;1.22
72236;BMP280;60146;52.498;13.462;2024-01-16T07:41:41;97893.66;;;1.04
72236;BMP280;60146;52.498;13.462;2024-01-16T07:44:06;97857.50;;;1.09
72236;BMP280;60146;52.498;13.462;2024-01-16T07:46:31;97814.66;;;1.13
72236;BMP280;60146;52.498;13.462;2024-01-16T07:48:57;97851.94;;;1.02
72236;BMP280;60146;52.498;13.462;2024-01-16T07:51:22;97831.34;;;1.02
72236;BMP280;60146;52.498;13.462;2024-01-16T07:53:48;97828.41;;;1.08
72236;BMP280;60146;52.498;13.462;2024-01-16T07:56:15;97808.16;;;1.02
72236;BMP280;60146;52.498;13.462;2024-01-16T07:58:40;97840.69;;;0.98
72236;BMP280;60146;52.498;13.462;2024-01-16T08:01:06;97826.56;;;1.27
72236;BMP280;60146;52.498;13.462;2024-01-16T08:03:31;97886.56;;;1.14
72236;BMP280;60146;52.498;13.462;2024-01-16T08:05:57;97896.03;;;1.18
72236;BMP280;60146;52.498;13.462;2024-01-16T08:08:24;97894.69;;;1.21
72236;BMP280;60146;52.498;13.462;2024-01-16T08:10:49;97903.34;;;1.12
72236;BMP280;60146;52.498;13.462;2024-01-16T08:13:15;97891.91;;;1.17
72236;BMP280;60146;52.498;13.462;2024-01-16T08:15:40;97884.66;;;1.19
72236;BMP280;60146;52.498;13.462;2024-01-16T08:18:05;97912.41;;;1.40
72236;BMP280;60146;52.498;13.462;2024-01-16T08:20:31;98017.50;;;1.48
72236;BMP280;60146;52.498;13.462;2024-01-16T08:22:56;98007.28;;;1.25
72236;BMP280;60146;52.498;13.462;2024-01-16T08:25:21;97947.75;;;1.22
72236;BMP280;60146;52.498;13.462;2024-01-16T08:27:47;97895.78;;;1.33
72236;BMP280;60146;52.498;13.462;2024-01-16T08:30:12;97929.84;;;1.30
72236;BMP280;60146;52.498;13.462;2024-01-16T08:32:38;97873.94;;;1.44
72236;BMP280;60146;52.498;13.462;2024-01-16T08:35:03;97954.84;;;1.48
72236;BMP280;60146;52.498;13.462;2024-01-16T08:37:33;97989.22;;;1.25
72236;BMP280;60146;52.498;13.462;2024-01-16T08:39:59;97983.78;;;1.45
72236;BMP280;60146;52.498;13.462;2024-01-16T08:42:24;98042.94;;;1.55
72236;BMP280;60146;52.498;13.462;2024-01-16T08:44:50;98116.81;;;1.82
72236;BMP280;60146;52.498;13.462;2024-01-16T08:47:15;98218.41;;;1.86
72236;BMP280;60146;52.498;13.462;2024-01-16T08:49:40;98212.66;;;1.94
72236;BMP280;60146;52.498;13.462;2024-01-16T08:52:05;98238.22;;;2.13
72236;BMP280;60146;52.498;13.462;2024-01-16T08:54:31;98260.41;;;2.14
72236;BMP280;60146;52.498;13.462;2024-01-16T08:56:57;98275.06;;;1.96
72236;BMP280;60146;52.498;13.462;2024-01-16T08:59:24;98244.75;;;2.06
72236;BMP280;60146;52.498;13.462;2024-01-16T09:01:49;98254.38;;;2.01
72236;BMP280;60146;52.498;13.462;2024-01-16T09:04:15;98236.13;;;1.74
72236;BMP280;60146;52.498;13.462;2024-01-16T09:06:40;98242.66;;;1.90
72236;BMP280;60146;52.498;13.462;2024-01-16T09:09:05;98253.97;;;1.89
72236;BMP280;60146;52.498;13.462;2024-01-16T09:11:31;98219.16;;;2.09
72236;BMP280;60146;52.498;13.462;2024-01-16T09:13:59;98260.19;;;1.88
72236;BMP280;60146;52.498;13.462;2024-01-16T09:16:25;98207.53;;;1.89
72236;BMP280;60146;52.498;13.462;2024-01-16T09:18:50;98190.06;;;2.04
72236;BMP280;60146;52.498;13.462;2024-01-16T09:21:16;98211.59;;;1.95
72236;BMP280;60146;52.498;13.462;2024-01-16T09:23:41;98172.28;;;2.03
72236;BMP280;60146;52.498;13.462;2024-01-16T09:26:06;98170.16;;;1.86
72236;BMP280;60146;52.498;13.462;2024-01-16T09:28:32;98133.63;;;1.98
72236;BMP280;60146;52.498;13.462;2024-01-16T09:30:57;98139.47;;;1.85
72236;BMP280;60146;52.498;13.462;2024-01-16T09:33:23;98038.50;;;1.91
72236;BMP280;60146;52.498;13.462;2024-01-16T09:35:50;98056.81;;;2.08
72236;BMP280;60146;52.498;13.462;2024-01-16T09:38:15;98075.25;;;1.83
72236;BMP280;60146;52.498;13.462;2024-01-16T09:40:41;98066.38;;;2.07
72236;BMP280;60146;52.498;13.462;2024-01-16T09:43:06;98129.91;;;2.22
72236;BMP280;60146;52.498;13.462;2024-01-16T09:45:37;98148.13;;;2.12
72236;BMP280;60146;52.498;13.462;2024-01-16T09:48:03;98213.00;;;2.24
72236;BMP280;60146;52.498;13.462;2024-01-16T09:50:29;98207.19;;;2.18
72236;BMP280;60146;52.498;13.462;2024-01-16T09:52:55;98200.06;;;2.10
72236;BMP280;60146;52.498;13.462;2024-01-16T09:55:20;98158.66;;;2.15
72236;BMP280;60146;52.498;13.462;2024-01-16T09:57:51;98121.47;;;2.16
72236;BMP280;60146;52.498;13.462;2024-01-16T10:00:17;98135.66;;;2.32
72236;BMP280;60146;52.498;13.462;2024-01-16T10:02:42;98202.28;;;2.17
72236;BMP280;60146;52.498;13.462;2024-01-16T10:05:10;98135.44;;;2.15
72236;BMP280;60146;52.498;13.462;2024-01-16T10:07:37;98083.28;;;2.45
72236;BMP280;60146;52.498;13.462;2024-01-16T10:10:03;98154.59;;;2.27
72236;BMP280;60146;52.498;13.462;2024-01-16T10:12:28;98142.78;;;2.40
72236;BMP280;60146;52.498;13.462;2024-01-16T10:14:55;98173.22;;;2.43
72236;BMP280;60146;52.498;13.462;2024-01-16T10:17:20;98199.84;;;2.56
72236;BMP280;60146;52.498;13.462;2024-01-16T10:19:51;98254.09;;;2.56
72236;BMP280;60146;52.498;13.462;2024-01-16T10:22:24;98291.81;;;2.75
72236;BMP280;60146;52.498;13.462;2024-01-16T10:25:06;98354.84;;;2.92
72236;BMP280;60146;52.498;13.462;2024-01-16T10:27:34;98372.13;;;2.79
72236;BMP280;60146;52.498;13.462;2024-01-16T10:29:59;98314.81;;;2.90
72236;BMP280;60146;52.498;13.462;2024-01-16T10:32:28;98369.47;;;2.84
72236;BMP280;60146;52.498;13.462;2024-01-16T10:35:13;98433.66;;;3.13
72236;BMP280;60146;52.498;13.462;2024-01-16T10:42:43;98520.56;;;3.32
72236;BMP280;60146;52.498;13.462;2024-01-16T10:45:16;98556.50;;;3.52
72236;BMP280;60146;52.498;13.462;2024-01-16T10:47:42;98602.09;;;3.48
72236;BMP280;60146;52.498;13.462;2024-01-16T10:50:08;98530.69;;;3.29
72236;BMP280;60146;52.498;13.462;2024-01-16T10:52:35;98595.03;;;3.35
72236;BMP280;60146;52.498;13.462;2024-01-16T10:55:03;98528.88;;;3.47
72236;BMP280;60146;52.498;13.462;2024-01-16T10:57:33;98580.22;;;3.58
72236;BMP280;60146;52.498;13.462;2024-01-16T11:00:05;98566.19;;;3.78
72236;BMP280;60146;52.498;13.462;2024-01-16T11:02:43;98679.88;;;3.97
72236;BMP280;60146;52.498;13.462;2024-01-16T11:05:12;98764.16;;;4.26
72236;BMP280;60146;52.498;13.462;2024-01-16T11:07:38;98845.69;;;4.10
72236;BMP280;60146;52.498;13.462;2024-01-16T11:10:06;98871.59;;;3.87
72236;BMP280;60146;52.498;13.462;2024-01-16T11:12:33;98862.03;;;3.60
72236;BMP280;60146;52.498;13.462;2024-01-16T11:15:00;98808.25;;;3.57
72236;BMP280;60146;52.498;13.462;2024-01-16T11:17:33;98754.16;;;3.56
72236;BMP280;60146;52.498;13.462;2024-01-16T11:20:00;98742.06;;;3.51
72236;BMP280;60146;52.498;13.462;2024-01-16T11:22:26;98755.72;;;3.57
72236;BMP280;60146;52.498;13.462;2024-01-16T11:25:09;98772.50;;;3.08
72236;BMP280;60146;52.498;13.462;2024-01-16T11:27:36;98730.72;;;2.96
72236;BMP280;60146;52.498;13.462;2024-01-16T11:30:01;98753.13;;;3.06
72236;BMP280;60146;52.498;13.462;2024-01-16T11:32:34;98692.22;;;2.90
72236;BMP280;60146;52.498;13.462;2024-01-16T11:35:01;98681.78;;;3.05
72236;BMP280;60146;52.498;13.462;2024-01-16T11:37:28;98696.53;;;2.99
72236;BMP280;60146;52.498;13.462;2024-01-16T11:42:53;98707.63;;;3.05
72236;BMP280;60146;52.498;13.462;2024-01-16T11:50:36;98483.59;;;2.91
72236;BMP280;60146;52.498;13.462;2024-01-16T11:53:02;98452.28;;;2.92
72236;BMP280;60146;52.498;13.462;2024-01-16T11:55:32;98452.53;;;2.95
72236;BMP280;60146;52.498;13.462;2024-01-16T11:58:29;98406.53;;;2.92
72236;BMP280;60146;52.498;13.462;2024-01-16T12:01:03;98437.91;;;2.86
72236;BMP280;60146;52.498;13.462;2024-01-16T12:03:30;98386.91;;;2.73
72236;BMP280;60146;52.498;13.462;2024-01-16T12:05:59;98357.31;;;2.84
72236;BMP280;60146;52.498;13.462;2024-01-16T12:08:25;98342.44;;;2.58
72236;BMP280;60146;52.498;13.462;2024-01-16T12:10:51;98214.06;;;2.72
72236;BMP280;60146;52.498;13.462;2024-01-16T12:13:16;98205.41;;;2.63
72236;BMP280;60146;52.498;13.462;2024-01-16T12:15:42;98154.25;;;2.65
72236;BMP280;60146;52.498;13.462;2024-01-16T12:18:07;98116.47;;;2.82
72236;BMP280;60146;52.498;13.462;2024-01-16T12:20:35;98168.00;;;3.05
72236;BMP280;60146;52.498;13.462;2024-01-16T12:23:04;98209.38;;;3.05
72236;BMP280;60146;52.498;13.462;2024-01-16T12:25:31;98254.38;;;3.04
72236;BMP280;60146;52.498;13.462;2024-01-16T12:28:02;98223.78;;;2.93
72236;BMP280;60146;52.498;13.462;2024-01-16T12:30:37;98216.59;;;2.90
72236;BMP280;60146;52.498;13.462;2024-01-16T12:33:06;98234.63;;;2.95
72236;BMP280;60146;52.498;13.462;2024-01-16T12:35:35;98167.66;;;2.67
72236;BMP280;60146;52.498;13.462;2024-01-16T12:38:02;98105.66;;;2.93
72236;BMP280;60146;52.498;13.462;2024-01-16T12:40:29;98159.34;;;2.96
72236;BMP280;60146;52.498;13.462;2024-01-16T12:42:55;98118.75;;;2.84
72236;BMP280;60146;52.498;13.462;2024-01-16T12:45:22;98085.84;;;2.76
72236;BMP280;60146;52.498;13.462;2024-01-16T12:47:53;98067.34;;;2.95
72236;BMP280;60146;52.498;13.462;2024-01-16T12:50:22;98118.94;;;3.13
72236;BMP280;60146;52.498;13.462;2024-01-16T12:52:49;98187.22;;;3.13
72236;BMP280;60146;52.498;13.462;2024-01-16T12:55:15;98138.09;;;2.99
72236;BMP280;60146;52.498;13.462;2024-01-16T12:57:41;98206.56;;;3.02
72236;BMP280;60146;52.498;13.462;2024-01-16T13:00:23;98170.44;;;2.84
72236;BMP280;60146;52.498;13.462;2024-01-16T13:02:50;98154.56;;;2.90
72236;BMP280;60146;52.498;13.462;2024-01-16T13:05:16;98053.84;;;2.98
72236;BMP280;60146;52.498;13.462;2024-01-16T13:07:43;97942.88;;;3.02
72236;BMP280;60146;52.498;13.462;2024-01-16T13:10:09;97847.66;;;2.95
72236;BMP280;60146;52.498;13.462;2024-01-16T13:12:36;97804.63;;;2.99
72236;BMP280;60146;52.498;13.462;2024-01-16T13:15:03;97779.69;;;2.95
72236;BMP280;60146;52.498;13.462;2024-01-16T13:17:31;97816.25;;;2.89
72236;BMP280;60146;52.498;13.462;2024-01-16T13:19:57;97821.34;;;2.93
72236;BMP280;60146;52.498;13.462;2024-01-16T13:22:22;97868.88;;;3.06
72236;BMP280;60146;52.498;13.462;2024-01-16T13:24:48;97908.16;;;2.94
72236;BMP280;60146;52.498;13.462;2024-01-16T13:27:13;97940.69;;;2.95
72236;BMP280;60146;52.498;13.462;2024-01-16T13:29:39;97974.22;;;3.22
72236;BMP280;60146;52.498;13.462;2024-01-16T13:32:05;98087.03;;;3.18
72236;BMP280;60146;52.498;13.462;2024-01-16T13:34:31;98077.78;;;3.04
72236;BMP280;60146;52.498;13.462;2024-01-16T13:36:58;98145.56;;;3.14
72236;BMP280;60146;52.498;13.462;2024-01-16T13:39:25;98210.72;;;3.42
72236;BMP280;60146;52.498;13.462;2024-01-16T13:41:50;98312.00;;;3.49
72236;BMP280;60146;52.498;13.462;2024-01-16T13:44:16;98357.03;;;3.48
72236;BMP280;60146;52.498;13.462;2024-01-16T13:46:41;98391.19;;;3.50
72236;BMP280;60146;52.498;13.462;2024-01-16T13:49:06;98429.56;;;3.43
72236;BMP280;60146;52.498;13.462;2024-01-16T13:51:32;98448.03;;;3.37
72236;BMP280;60146;52.498;13.462;2024-01-16T13:53:58;98449.78;;;3.41
72236;BMP280;60146;52.498;13.462;2024-01-16T13:56:23;98463.53;;;3.55
72236;BMP280;60146;52.498;13.462;2024-01-16T13:58:48;98475.53;;;3.51
72236;BMP280;60146;52.498;13.462;2024-01-16T14:01:14;98495.72;;;3.49
72236;BMP280;60146;52.498;13.462;2024-01-16T14:03:39;98436.44;;;3.35
72236;BMP280;60146;52.498;13.462;2024-01-16T14:06:05;98312.78;;;3.05
72236;BMP280;60146;52.498;13.462;2024-01-16T14:08:32;98217.22;;;3.13
72236;BMP280;60146;52.498;13.462;2024-01-16T14:10:58;98293.25;;;3.13
72236;BMP280;60146;52.498;13.462;2024-01-16T14:13:23;98293.16;;;3.17
72236;BMP280;60146;52.498;13.462;2024-01-16T14:15:50;98350.97;;;3.26
72236;BMP280;60146;52.498;13.462;2024-01-16T14:18:16;98411.28;;;3.22